Latest Coastal Weather Observations for Evans Head

IDN60701

Issued at 6:31 pm EST Wednesday 2 September 2015 (issued every 10 minutes, with the page automatically refreshed every 10 minutes)

About coastal observations | Map of coastal stations | Coastal observations for NSW | Marine services | Other Formats
Station Details ID: 058212 Name: EVANS HEAD RAAF BOMBING RANGE AWS Lat: -29.18 Lon: 153.40 Height: 62.5 m
Data from the previous 72 hours. | See also: Recent months at Evans Head
Date/Time
EST
Temp

°C
Wind Pressure Rain
since 9am
mm
Weather Cloud Vis
km
Sea
Height
m
Swell
Dir
 
Speed
knots
Gust
knots
hPa Trend Height
m
Period
s
Dir
02/06:30pm 15.8 N 9 14 1014.6 - 0.0 - - - - - - -
02/06:00pm 15.9 NNE 8 12 1014.4 - 0.0 - - - - - - -
02/05:30pm 16.4 NNE 8 12 1014.4 - 0.0 - - - - - - -
02/05:00pm 17.1 NNE 8 12 1014.5 - 0.0 - - - - - - -
02/04:30pm 18.3 NE 9 16 1014.3 - 0.0 - - - - - - -
02/04:00pm 19.3 NE 7 12 1014.6 - 0.0 - - - - - - -
02/03:30pm 19.9 ENE 7 11 1014.9 - 0.0 - - - - - - -
02/03:00pm 19.9 ENE 7 10 1015.1 - 0.0 - - - - - - -
02/02:30pm 20.1 E 8 11 1015.2 - 0.0 - - - - - - -
02/02:00pm 19.5 ESE 8 11 1015.7 - 0.0 - - - - - - -
02/01:30pm 19.7 ESE 8 10 1016.0 - 0.0 - - - - - - -
02/01:00pm 20.1 ESE 8 11 1016.2 - 0.0 - - - - - - -
02/12:30pm 20.7 ESE 7 9 1017.3 - 0.0 - - - - - - -
02/12:00pm 20.3 ESE 6 8 1017.8 - 0.0 - - - - - - -
02/11:30am 20.6 ESE 7 9 1018.0 - 0.0 - - - - - - -
02/11:00am 20.6 SSE 3 5 1018.9 - 0.0 - - - - - - -
02/10:30am 19.8 SSE 2 5 1018.7 - 0.0 - - - - - - -
02/10:00am 18.6 WNW 4 6 1019.2 - 0.0 - - - - - - -
02/09:30am 15.4 SW 4 7 1019.4 - 0.0 - - - - - - -
02/09:00am 14.4 WNW 4 7 1019.6 - 0.0 - - - - - - -
02/08:30am 13.7 WNW 4 6 1019.3 - 0.0 - - - - - - -
02/08:00am 12.7 WSW 2 6 1019.2 - 0.0 - - - - - - -
02/07:30am 12.0 WNW 2 5 1018.5 - 0.0 - - - - - - -
02/07:00am 9.5 NNW 5 6 1018.4 - 0.0 - - - - - - -
02/06:30am 10.2 NW 5 6 1018.1 - 0.0 - - - - - - -
02/06:00am 11.7 W 7 10 1017.7 - 0.0 - - - - - - -
02/05:30am 11.2 W 8 10 1017.3 - 0.0 - - - - - - -
02/05:00am 11.4 W 7 9 1016.9 - 0.0 - - - - - - -
02/04:30am 11.3 W 8 11 1016.8 - 0.0 - - - - - - -
02/04:00am 11.1 W 7 10 1016.4 - 0.0 - - - - - - -
02/03:30am 10.9 W 7 9 1016.5 - 0.0 - - - - - - -
02/03:00am 11.2 W 8 12 1016.6 - 0.0 - - - - - - -
02/02:30am 11.8 W 7 9 1016.7 - 0.0 - - - - - - -
02/02:00am 11.4 W 7 9 1016.8 - 0.0 - - - - - - -
02/01:30am 11.1 W 7 9 1016.6 - 0.0 - - - - - - -
02/01:00am 11.7 WSW 7 7 1016.2 - 0.0 - - - - - - -
02/12:30am 11.6 W 7 8 1016.1 - 0.0 - - - - - - -
02/12:00am 11.7 WSW 7 8 1015.9 - 0.0 - - - - - - -
 
Date/Time
EST
Temp

°C
Wind Pressure Rain
since 9am
mm
Weather Cloud Vis
km
Sea
Height
m
Swell
Dir
 
Speed
knots
Gust
knots
hPa Trend Height
m
Period
s
Dir
01/11:30pm 11.8 SW 7 9 1016.0 - 0.0 - - - - - - -
01/11:00pm 12.1 SW 6 7 1016.0 - 0.0 - - - - - - -
01/10:30pm 13.5 WSW 5 7 1015.7 - 0.0 - - - - - - -
01/10:00pm 13.2 SW 4 5 1015.8 - 0.0 - - - - - - -
01/09:30pm 12.0 NNW 5 6 1015.5 - 0.0 - - - - - - -
01/09:00pm 12.1 N 6 8 1015.5 - 0.0 - - - - - - -
01/08:30pm 12.9 N 5 6 1015.4 - 0.0 - - - - - - -
01/08:00pm 13.9 NNE 5 7 1015.2 - 0.0 - - - - - - -
01/07:30pm 14.0 N 6 9 1014.8 - 0.0 - - - - - - -
01/07:00pm 14.2 N 6 7 1014.5 - 0.0 - - - - - - -
01/06:30pm 14.8 NNE 7 9 1014.2 - 0.0 - - - - - - -
01/06:00pm 14.8 NNE 7 10 1013.8 - 0.0 - - - - - - -
01/05:30pm 15.4 NNE 6 9 1013.4 - 0.0 - - - - - - -
01/05:00pm 16.6 NE 7 12 1013.3 - 0.0 - - - - - - -
01/04:30pm 17.6 NE 8 13 1013.1 - 0.0 - - - - - - -
01/04:00pm 18.1 E 8 11 1012.9 - 0.0 - - - - - - -
01/03:30pm 18.5 ESE 8 11 1012.8 - 0.0 - - - - - - -
01/03:00pm 18.7 ESE 8 11 1012.8 - 0.0 - - - - - - -
01/02:30pm 19.1 ESE 7 10 1013.2 - 0.0 - - - - - - -
01/02:00pm 19.3 SE 7 10 1013.4 - 0.0 - - - - - - -
01/01:30pm 19.3 SE 7 10 1013.7 - 0.0 - - - - - - -
01/01:00pm 19.6 SE 7 10 1013.9 - 0.0 - - - - - - -
01/12:30pm 19.8 SE 7 11 1014.1 - 0.0 - - - - - - -
01/12:00pm 19.7 SE 8 12 1014.7 - 0.0 - - - - - - -
01/11:30am 19.3 SE 4 9 1015.1 - 0.0 - - - - - - -
01/11:00am 20.4 WSW 4 7 1015.6 - 0.0 - - - - - - -
01/10:30am 18.4 WSW 5 8 1016.0 - 0.0 - - - - - - -
01/10:00am 18.4 W 5 9 1016.2 - 0.0 - - - - - - -
01/09:30am 17.7 W 7 14 1016.3 - 0.0 - - - - - - -
01/09:00am 17.1 NW 6 10 1016.3 - 0.0 - - - - - - -
01/08:30am 15.6 WNW 7 11 1016.4 - 0.0 - - - - - - -
01/08:00am 14.1 WNW 7 11 1016.1 - 0.0 - - - - - - -
01/07:30am 12.2 WNW 7 10 1015.7 - 0.0 - - - - - - -
01/07:00am 9.3 NNW 6 7 1015.5 - 0.0 - - - - - - -
01/06:30am 8.0 NNW 6 7 1015.3 - 0.0 - - - - - - -
01/06:00am 7.9 NNW 6 7 1015.0 - 0.0 - - - - - - -
01/05:30am 9.3 W 6 8 1014.7 - 0.0 - - - - - - -
01/05:00am 7.9 NW 4 6 1014.5 - 0.0 - - - - - - -
01/04:30am 8.2 NNW 5 6 1014.3 - 0.0 - - - - - - -
01/04:00am 8.3 NNW 5 6 1014.2 - 0.0 - - - - - - -
01/03:30am 8.9 NNW 5 7 1014.2 - 0.0 - - - - - - -
01/03:00am 9.3 NNW 5 6 1014.2 - 0.0 - - - - - - -
01/02:30am 10.8 WNW 6 8 1014.4 - 0.0 - - - - - - -
01/02:00am 12.5 W 6 8 1014.6 - 0.0 - - - - - - -
01/01:30am 12.8 W 6 9 1014.7 - 0.0 - - - - - - -
01/01:00am 12.9 W 6 8 1015.0 - 0.0 - - - - - - -
01/12:30am 13.1 W 7 8 1015.2 - 0.0 - - - - - - -
01/12:00am 13.4 W 6 8 1015.5 - 0.0 - - - - - - -
 
Date/Time
EST
Temp

°C
Wind Pressure Rain
since 9am
mm
Weather Cloud Vis
km
Sea
Height
m
Swell
Dir
 
Speed
knots
Gust
knots
hPa Trend Height
m
Period
s
Dir
31/11:30pm 13.7 W 7 8 1015.7 - 0.0 - - - - - - -
31/11:00pm 14.0 W 7 8 1015.7 - 0.0 - - - - - - -
31/10:30pm 13.7 W 7 9 1015.6 - 0.0 - - - - - - -
31/10:00pm 13.9 W 7 8 1015.6 - 0.0 - - - - - - -
31/09:30pm 13.8 W 8 9 1015.8 - 0.0 - - - - - - -
31/09:00pm 14.3 W 6 7 1015.6 - 0.0 - - - - - - -
31/08:30pm 14.0 W 8 9 1015.4 - 0.0 - - - - - - -
31/08:00pm 14.7 NW 3 4 1015.1 - 0.0 - - - - - - -
31/07:30pm 14.8 E 3 4 1014.8 - 0.0 - - - - - - -
31/07:00pm 15.4 ESE 7 10 1014.3 - 0.0 - - - - - - -
31/06:30pm 14.9 SE 8 10 1014.0 - 0.0 - - - - - - -
31/06:00pm 14.9 SE 8 11 1013.9 - 0.0 - - - - - - -
31/05:30pm 14.9 SE 7 10 1013.7 - 0.0 - - - - - - -
31/05:00pm 15.7 SE 7 10 1013.5 - 0.0 - - - - - - -
31/04:30pm 16.6 SE 7 10 1013.4 - 0.0 - - - - - - -
31/04:00pm 17.3 SE 8 11 1013.3 - 0.0 - - - - - - -
31/03:30pm 17.9 SE 9 13 1013.3 - 0.0 - - - - - - -
31/03:00pm 18.2 SE 10 13 1013.4 - 0.0 - - - - - - -
31/02:30pm 18.9 SE 10 14 1013.4 - 0.0 - - - - - - -
31/02:00pm 18.6 SE 11 15 1013.6 - 0.0 - - - - - - -
31/01:30pm 19.7 SSE 9 14 1013.9 - 0.0 - - - - - - -
31/01:00pm 19.1 SE 10 14 1014.1 - 0.0 - - - - - - -
31/12:30pm 19.5 SSE 9 13 1014.5 - 0.0 - - - - - - -
31/12:00pm 18.6 SSE 10 14 1014.7 - 0.0 - - - - - - -
31/11:30am 19.1 SSE 11 14 1015.0 - 0.0 - - - - - - -
31/11:00am 19.4 SSE 11 15 1015.6 - 0.0 - - - - - - -
31/10:30am 18.8 SSE 10 14 1015.8 - 0.0 - - - - - - -
31/10:00am 18.4 SSE 8 12 1016.2 - 0.0 - - - - - - -
31/09:30am 17.8 SSW 5 10 1016.3 - 0.0 - - - - - - -
31/09:00am 16.6 SW 7 10 1016.5 - 0.0 - - - - - - -
31/08:30am 15.9 SSW 7 12 1016.5 - 0.0 - - - - - - -
31/08:00am 14.9 SW 6 9 1016.5 - 0.0 - - - - - - -
31/07:30am 13.9 WSW 8 11 1016.4 - 0.0 - - - - - - -
31/07:00am 13.0 SW 8 11 1016.1 - 0.0 - - - - - - -
31/06:30am 12.1 SW 10 13 1015.7 - 0.0 - - - - - - -
31/06:00am 11.7 SW 9 12 1015.5 - 0.0 - - - - - - -
31/05:30am 11.7 SW 9 11 1015.4 - 0.0 - - - - - - -
31/05:00am 11.8 SW 9 12 1015.3 - 0.0 - - - - - - -
31/04:30am 11.6 SW 8 10 1015.3 - 0.0 - - - - - - -
31/04:00am 11.6 WSW 8 10 1015.1 - 0.0 - - - - - - -
31/03:30am 11.7 WSW 7 10 1015.0 - 0.0 - - - - - - -
31/03:00am 11.8 WSW 6 8 1015.2 - 0.0 - - - - - - -
31/02:30am 12.1 SW 7 9 1015.5 - 0.0 - - - - - - -
31/02:00am 12.4 WSW 7 9 1015.6 - 0.0 - - - - - - -
31/01:30am 13.0 SW 7 10 1015.8 - 0.0 - - - - - - -
31/01:00am 12.9 SW 7 10 1016.1 - 0.0 - - - - - - -
31/12:30am 13.1 SW 5 6 1016.2 - 0.0 - - - - - - -
31/12:00am 13.5 SSW 6 8 1016.5 - 0.0 - - - - - - -
 
Date/Time
EST
Temp

°C
Wind Pressure Rain
since 9am
mm
Weather Cloud Vis
km
Sea
Height
m
Swell
Dir
 
Speed
knots
Gust
knots
hPa Trend Height
m
Period
s
Dir
30/11:30pm 13.7 SSW 5 7 1016.6 - 0.0 - - - - - - -
30/11:00pm 13.5 NW 2 5 1016.5 - 0.0 - - - - - - -
30/10:30pm 13.8 SW 7 11 1016.5 - 0.0 - - - - - - -
30/10:00pm 14.5 SW 9 12 1016.3 - 0.0 - - - - - - -
30/09:30pm 14.9 SSW 7 10 1016.4 - 0.0 - - - - - - -
30/09:00pm 16.9 SSE 8 12 1016.5 - 0.0 - - - - - - -
30/08:30pm 16.8 SE 10 15 1016.3 - 0.0 - - - - - - -
30/08:00pm 16.8 SE 9 13 1016.1 - 0.0 - - - - - - -
30/07:30pm 16.8 SE 10 16 1015.9 - 0.0 - - - - - - -
30/07:00pm 16.9 SE 11 15 1015.6 - 0.0 - - - - - - -

Other Formats:

Comma delimited format used in spreadsheet applications
http://www.bom.gov.au/fwo/IDN60701/IDN60701.94598.axf

JavaScript Object Notation format (JSON) in row-major order
http://www.bom.gov.au/fwo/IDN60701/IDN60701.94598.json